Marienville, Pennsylvania
Current Conditions -  °F | °C
As of 12:53 PM on Tuesday 21 Oct 2014 (Local Time) from KDUJ Reporting Station
Light Rain Light Rain  
Wind Chill: 44°   Ceiling: 3800
Heat Index: 47°   Visibility: 4mi
Dew Point: 45°   Wind: 6mph
Humidity: 93%   Direction: 350°N
Pressure: 29.86"   Gusts: NA
Location:  41.47°N, 79.12°W
Report Text: KDUJ 211653Z AUTO 35005KT 4SM -RA BR OVC038 08/07 A2986 RMK AO2 SLP114 P0028 T00830072
Loading
Personal Weather Stations






























Interactive Weather Map New forecast layout! Learn more

10-Day Weather Forecast

Advertisements
Track Severe Weather on mobile